sensor_id;sensor_type;location;lat;lon;timestamp;pressure;altitude;pressure_sealevel;temperature
75431;BMP280;64127;51.488;5.462;2024-01-30T00:01:07;102407.28;;;12.37
75431;BMP280;64127;51.488;5.462;2024-01-30T00:03:39;102405.38;;;12.34
75431;BMP280;64127;51.488;5.462;2024-01-30T00:06:11;102407.28;;;12.37
75431;BMP280;64127;51.488;5.462;2024-01-30T00:08:44;102406.41;;;12.36
75431;BMP280;64127;51.488;5.462;2024-01-30T00:11:18;102400.94;;;12.33
75431;BMP280;64127;51.488;5.462;2024-01-30T00:13:50;102402.75;;;12.34
75431;BMP280;64127;51.488;5.462;2024-01-30T00:16:23;102406.19;;;12.33
75431;BMP280;64127;51.488;5.462;2024-01-30T00:18:56;102411.44;;;12.33
75431;BMP280;64127;51.488;5.462;2024-01-30T00:21:28;102405.09;;;12.30
75431;BMP280;64127;51.488;5.462;2024-01-30T00:24:00;102411.28;;;12.30
75431;BMP280;64127;51.488;5.462;2024-01-30T00:26:33;102406.00;;;12.30
75431;BMP280;64127;51.488;5.462;2024-01-30T00:29:05;102404.00;;;12.26
75431;BMP280;64127;51.488;5.462;2024-01-30T00:31:37;102407.66;;;12.28
75431;BMP280;64127;51.488;5.462;2024-01-30T00:34:12;102400.56;;;12.27
75431;BMP280;64127;51.488;5.462;2024-01-30T00:36:44;102397.88;;;12.26
75431;BMP280;64127;51.488;5.462;2024-01-30T00:39:16;102396.97;;;12.25
75431;BMP280;64127;51.488;5.462;2024-01-30T00:41:51;102396.59;;;12.19
75431;BMP280;64127;51.488;5.462;2024-01-30T00:44:23;102388.91;;;12.22
75431;BMP280;64127;51.488;5.462;2024-01-30T00:46:55;102400.22;;;12.21
75431;BMP280;64127;51.488;5.462;2024-01-30T00:49:27;102395.69;;;12.18
75431;BMP280;64127;51.488;5.462;2024-01-30T00:51:59;102392.16;;;12.18
75431;BMP280;64127;51.488;5.462;2024-01-30T00:54:31;102392.97;;;12.17
75431;BMP280;64127;51.488;5.462;2024-01-30T00:57:03;102384.28;;;12.18
75431;BMP280;64127;51.488;5.462;2024-01-30T00:59:35;102385.88;;;12.16
75431;BMP280;64127;51.488;5.462;2024-01-30T01:02:07;102375.34;;;12.16
75431;BMP280;64127;51.488;5.462;2024-01-30T01:04:40;102389.34;;;12.15
75431;BMP280;64127;51.488;5.462;2024-01-30T01:07:12;102384.91;;;12.14
75431;BMP280;64127;51.488;5.462;2024-01-30T01:09:44;102383.06;;;12.13
75431;BMP280;64127;51.488;5.462;2024-01-30T01:12:16;102379.91;;;12.04
75431;BMP280;64127;51.488;5.462;2024-01-30T01:14:48;102386.13;;;12.06
75431;BMP280;64127;51.488;5.462;2024-01-30T01:17:20;102353.78;;;11.92
75431;BMP280;64127;51.488;5.462;2024-01-30T01:19:52;102376.34;;;12.03
75431;BMP280;64127;51.488;5.462;2024-01-30T01:22:24;102378.06;;;12.03
75431;BMP280;64127;51.488;5.462;2024-01-30T01:24:56;102380.81;;;12.04
75431;BMP280;64127;51.488;5.462;2024-01-30T01:27:28;102377.38;;;12.05
75431;BMP280;64127;51.488;5.462;2024-01-30T01:30:01;102381.06;;;12.09
75431;BMP280;64127;51.488;5.462;2024-01-30T01:32:33;102380.25;;;12.10
75431;BMP280;64127;51.488;5.462;2024-01-30T01:35:05;102368.66;;;12.06
75431;BMP280;64127;51.488;5.462;2024-01-30T01:37:37;102381.91;;;12.08
75431;BMP280;64127;51.488;5.462;2024-01-30T01:40:09;102373.84;;;12.05
75431;BMP280;64127;51.488;5.462;2024-01-30T01:42:42;102371.22;;;12.05
75431;BMP280;64127;51.488;5.462;2024-01-30T01:45:14;102373.84;;;12.05
75431;BMP280;64127;51.488;5.462;2024-01-30T01:47:50;102359.78;;;12.04
75431;BMP280;64127;51.488;5.462;2024-01-30T01:50:23;102360.69;;;12.05
75431;BMP280;64127;51.488;5.462;2024-01-30T01:52:55;102362.31;;;12.03
75431;BMP280;64127;51.488;5.462;2024-01-30T01:55:30;102363.94;;;12.01
75431;BMP280;64127;51.488;5.462;2024-01-30T01:58:04;102359.50;;;12.00
75431;BMP280;64127;51.488;5.462;2024-01-30T02:00:37;102361.31;;;12.01
75431;BMP280;64127;51.488;5.462;2024-01-30T02:03:13;102355.03;;;11.99
75431;BMP280;64127;51.488;5.462;2024-01-30T02:05:45;102350.06;;;12.03
75431;BMP280;64127;51.488;5.462;2024-01-30T02:08:18;102345.84;;;12.05
75431;BMP280;64127;51.488;5.462;2024-01-30T02:10:50;102346.91;;;12.09
75431;BMP280;64127;51.488;5.462;2024-01-30T02:13:22;102341.47;;;12.06
75431;BMP280;64127;51.488;5.462;2024-01-30T02:15:54;102350.97;;;12.04
75431;BMP280;64127;51.488;5.462;2024-01-30T02:18:27;102345.63;;;12.02
75431;BMP280;64127;51.488;5.462;2024-01-30T02:21:04;102344.75;;;12.02
75431;BMP280;64127;51.488;5.462;2024-01-30T02:23:37;102342.81;;;11.99
75431;BMP280;64127;51.488;5.462;2024-01-30T02:26:11;102345.56;;;12.01
75431;BMP280;64127;51.488;5.462;2024-01-30T02:28:43;102345.38;;;11.98
75431;BMP280;64127;51.488;5.462;2024-01-30T02:31:15;102342.91;;;12.01
75431;BMP280;64127;51.488;5.462;2024-01-30T02:33:47;102342.75;;;11.98
75431;BMP280;64127;51.488;5.462;2024-01-30T02:36:19;102343.00;;;12.02
75431;BMP280;64127;51.488;5.462;2024-01-30T02:38:51;102343.91;;;12.03
75431;BMP280;64127;51.488;5.462;2024-01-30T02:41:23;102339.66;;;12.05
75431;BMP280;64127;51.488;5.462;2024-01-30T02:43:55;102346.72;;;12.06
75431;BMP280;64127;51.488;5.462;2024-01-30T02:46:27;102338.84;;;12.06
75431;BMP280;64127;51.488;5.462;2024-01-30T02:49:00;102339.84;;;12.08
75431;BMP280;64127;51.488;5.462;2024-01-30T02:51:32;102339.84;;;12.08
75431;BMP280;64127;51.488;5.462;2024-01-30T02:54:04;102330.25;;;12.08
75431;BMP280;64127;51.488;5.462;2024-01-30T02:56:36;102341.63;;;12.09
75431;BMP280;64127;51.488;5.462;2024-01-30T02:59:08;102341.56;;;12.07
75431;BMP280;64127;51.488;5.462;2024-01-30T03:01:46;102338.75;;;12.04
75431;BMP280;64127;51.488;5.462;2024-01-30T03:04:19;102334.31;;;12.03
75431;BMP280;64127;51.488;5.462;2024-01-30T03:06:52;102337.84;;;12.04
75431;BMP280;64127;51.488;5.462;2024-01-30T03:09:24;102334.41;;;12.05
75431;BMP280;64127;51.488;5.462;2024-01-30T03:11:55;102323.78;;;12.03
75431;BMP280;64127;51.488;5.462;2024-01-30T03:14:32;102322.81;;;12.01
75431;BMP280;64127;51.488;5.462;2024-01-30T03:17:04;102326.41;;;12.03
75431;BMP280;64127;51.488;5.462;2024-01-30T03:19:36;102314.81;;;12.00
75431;BMP280;64127;51.488;5.462;2024-01-30T03:22:08;102308.94;;;12.04
75431;BMP280;64127;51.488;5.462;2024-01-30T03:24:40;102300.88;;;12.01
75431;BMP280;64127;51.488;5.462;2024-01-30T03:27:12;102309.56;;;12.00
75431;BMP280;64127;51.488;5.462;2024-01-30T03:29:44;102303.41;;;11.99
75431;BMP280;64127;51.488;5.462;2024-01-30T03:32:16;102304.22;;;11.98
75431;BMP280;64127;51.488;5.462;2024-01-30T03:34:48;102297.16;;;11.97
75431;BMP280;64127;51.488;5.462;2024-01-30T03:37:20;102305.78;;;11.95
75431;BMP280;64127;51.488;5.462;2024-01-30T03:39:52;102302.31;;;11.96
75431;BMP280;64127;51.488;5.462;2024-01-30T03:42:24;102299.59;;;11.94
75431;BMP280;64127;51.488;5.462;2024-01-30T03:44:56;102302.13;;;11.93
75431;BMP280;64127;51.488;5.462;2024-01-30T03:47:28;102308.19;;;11.92
75431;BMP280;64127;51.488;5.462;2024-01-30T03:50:00;102302.75;;;11.89
75431;BMP280;64127;51.488;5.462;2024-01-30T03:52:32;102309.03;;;11.91
75431;BMP280;64127;51.488;5.462;2024-01-30T03:55:05;102315.19;;;11.91
75431;BMP280;64127;51.488;5.462;2024-01-30T03:57:37;102308.84;;;11.88
75431;BMP280;64127;51.488;5.462;2024-01-30T04:00:10;102314.09;;;11.88
75431;BMP280;64127;51.488;5.462;2024-01-30T04:02:42;102313.25;;;11.89
75431;BMP280;64127;51.488;5.462;2024-01-30T04:05:14;102319.34;;;11.88
75431;BMP280;64127;51.488;5.462;2024-01-30T04:07:46;102318.53;;;11.89
75431;BMP280;64127;51.488;5.462;2024-01-30T04:10:18;102305.75;;;11.80
75431;BMP280;64127;51.488;5.462;2024-01-30T04:12:51;102322.78;;;11.87
75431;BMP280;64127;51.488;5.462;2024-01-30T04:15:23;102312.38;;;11.88
75431;BMP280;64127;51.488;5.462;2024-01-30T04:17:58;102317.66;;;11.88
75431;BMP280;64127;51.488;5.462;2024-01-30T04:20:31;102295.44;;;11.83
75431;BMP280;64127;51.488;5.462;2024-01-30T04:23:03;102300.13;;;11.89
75431;BMP280;64127;51.488;5.462;2024-01-30T04:25:35;102301.94;;;11.90
75431;BMP280;64127;51.488;5.462;2024-01-30T04:28:07;102298.34;;;11.88
75431;BMP280;64127;51.488;5.462;2024-01-30T04:30:39;102299.25;;;11.88
75431;BMP280;64127;51.488;5.462;2024-01-30T04:33:11;102303.78;;;11.91
75431;BMP280;64127;51.488;5.462;2024-01-30T04:35:43;102294.16;;;11.91
75431;BMP280;64127;51.488;5.462;2024-01-30T04:38:15;102295.25;;;11.95
75431;BMP280;64127;51.488;5.462;2024-01-30T04:40:47;102293.44;;;11.94
75431;BMP280;64127;51.488;5.462;2024-01-30T04:43:19;102288.19;;;11.94
75431;BMP280;64127;51.488;5.462;2024-01-30T04:45:52;102284.75;;;11.95
75431;BMP280;64127;51.488;5.462;2024-01-30T04:48:24;102274.25;;;11.95
75431;BMP280;64127;51.488;5.462;2024-01-30T04:50:56;102274.31;;;11.96
75431;BMP280;64127;51.488;5.462;2024-01-30T04:53:30;102278.03;;;12.00
75431;BMP280;64127;51.488;5.462;2024-01-30T04:56:02;102260.53;;;12.00
75431;BMP280;64127;51.488;5.462;2024-01-30T04:58:34;102266.78;;;12.02
75431;BMP280;64127;51.488;5.462;2024-01-30T05:01:06;102260.66;;;12.02
75431;BMP280;64127;51.488;5.462;2024-01-30T05:03:38;102267.88;;;12.06
75431;BMP280;64127;51.488;5.462;2024-01-30T05:06:10;102266.25;;;12.08
75431;BMP280;64127;51.488;5.462;2024-01-30T05:08:42;102268.03;;;12.09
75431;BMP280;64127;51.488;5.462;2024-01-30T05:11:14;102267.25;;;12.10
75431;BMP280;64127;51.488;5.462;2024-01-30T05:13:46;102265.63;;;12.12
75431;BMP280;64127;51.488;5.462;2024-01-30T05:16:18;102273.50;;;12.12
75431;BMP280;64127;51.488;5.462;2024-01-30T05:18:51;102273.22;;;12.07
75431;BMP280;64127;51.488;5.462;2024-01-30T05:21:23;102279.41;;;12.08
75431;BMP280;64127;51.488;5.462;2024-01-30T05:23:55;102284.72;;;12.09
75431;BMP280;64127;51.488;5.462;2024-01-30T05:26:27;102281.41;;;12.12
75431;BMP280;64127;51.488;5.462;2024-01-30T05:28:59;102278.75;;;12.12
75431;BMP280;64127;51.488;5.462;2024-01-30T05:31:31;102280.56;;;12.13
75431;BMP280;64127;51.488;5.462;2024-01-30T05:34:03;102277.22;;;12.15
75431;BMP280;64127;51.488;5.462;2024-01-30T05:36:36;102268.50;;;12.16
75431;BMP280;64127;51.488;5.462;2024-01-30T05:39:08;102278.09;;;12.16
75431;BMP280;64127;51.488;5.462;2024-01-30T05:41:40;102273.69;;;12.15
75431;BMP280;64127;51.488;5.462;2024-01-30T05:44:12;102273.69;;;12.15
75431;BMP280;64127;51.488;5.462;2024-01-30T05:46:44;102269.41;;;12.17
75431;BMP280;64127;51.488;5.462;2024-01-30T05:49:16;102272.16;;;12.18
75431;BMP280;64127;51.488;5.462;2024-01-30T05:51:48;102269.41;;;12.17
75431;BMP280;64127;51.488;5.462;2024-01-30T05:54:20;102270.03;;;12.13
75431;BMP280;64127;51.488;5.462;2024-01-30T05:56:52;102279.84;;;12.15
75431;BMP280;64127;51.488;5.462;2024-01-30T05:59:24;102267.88;;;12.20
75431;BMP280;64127;51.488;5.462;2024-01-30T06:01:56;102273.84;;;12.18
75431;BMP280;64127;51.488;5.462;2024-01-30T06:04:28;102275.69;;;12.19
75431;BMP280;64127;51.488;5.462;2024-01-30T06:07:00;102279.28;;;12.21
75431;BMP280;64127;51.488;5.462;2024-01-30T06:09:34;102268.66;;;12.19
75431;BMP280;64127;51.488;5.462;2024-01-30T06:12:06;102277.63;;;12.23
75431;BMP280;64127;51.488;5.462;2024-01-30T06:14:38;102273.28;;;12.24
75431;BMP280;64127;51.488;5.462;2024-01-30T06:17:10;102270.59;;;12.22
75431;BMP280;64127;51.488;5.462;2024-01-30T06:19:43;102272.22;;;12.20
75431;BMP280;64127;51.488;5.462;2024-01-30T06:22:16;102279.47;;;12.24
75431;BMP280;64127;51.488;5.462;2024-01-30T06:24:48;102278.84;;;12.28
75431;BMP280;64127;51.488;5.462;2024-01-30T06:27:20;102291.16;;;12.29
75431;BMP280;64127;51.488;5.462;2024-01-30T06:29:52;102281.47;;;12.28
75431;BMP280;64127;51.488;5.462;2024-01-30T06:32:24;102287.81;;;12.32
75431;BMP280;64127;51.488;5.462;2024-01-30T06:34:56;102292.31;;;12.34
75431;BMP280;64127;51.488;5.462;2024-01-30T06:37:28;102296.78;;;12.35
75431;BMP280;64127;51.488;5.462;2024-01-30T06:40:00;102294.94;;;12.34
75431;BMP280;64127;51.488;5.462;2024-01-30T06:42:32;102300.22;;;12.34
75431;BMP280;64127;51.488;5.462;2024-01-30T06:45:05;102299.41;;;12.35
75431;BMP280;64127;51.488;5.462;2024-01-30T06:47:37;102294.16;;;12.35
75431;BMP280;64127;51.488;5.462;2024-01-30T06:50:09;102298.66;;;12.38
75431;BMP280;64127;51.488;5.462;2024-01-30T06:52:41;102304.72;;;12.37
75431;BMP280;64127;51.488;5.462;2024-01-30T06:55:13;102297.75;;;12.37
75431;BMP280;64127;51.488;5.462;2024-01-30T06:57:46;102302.03;;;12.35
75431;BMP280;64127;51.488;5.462;2024-01-30T07:00:19;102314.53;;;12.39
75431;BMP280;64127;51.488;5.462;2024-01-30T07:02:52;102324.22;;;12.40
75431;BMP280;64127;51.488;5.462;2024-01-30T07:05:24;102327.69;;;12.39
75431;BMP280;64127;51.488;5.462;2024-01-30T07:07:56;102318.78;;;12.37
75431;BMP280;64127;51.488;5.462;2024-01-30T07:10:28;102332.94;;;12.39
75431;BMP280;64127;51.488;5.462;2024-01-30T07:13:01;102331.31;;;12.41
75431;BMP280;64127;51.488;5.462;2024-01-30T07:15:33;102342.91;;;12.45
75431;BMP280;64127;51.488;5.462;2024-01-30T07:18:05;102349.88;;;12.44
75431;BMP280;64127;51.488;5.462;2024-01-30T07:20:37;102349.09;;;12.45
75431;BMP280;64127;51.488;5.462;2024-01-30T07:23:14;102355.97;;;12.43
75431;BMP280;64127;51.488;5.462;2024-01-30T07:25:48;102350.63;;;12.42
75431;BMP280;64127;51.488;5.462;2024-01-30T07:28:23;102351.59;;;12.44
75431;BMP280;64127;51.488;5.462;2024-01-30T07:30:55;102351.53;;;12.42
75431;BMP280;64127;51.488;5.462;2024-01-30T07:33:28;102346.44;;;12.45
75431;BMP280;64127;51.488;5.462;2024-01-30T07:36:00;102351.72;;;12.45
75431;BMP280;64127;51.488;5.462;2024-01-30T07:38:32;102354.34;;;12.45
75431;BMP280;64127;51.488;5.462;2024-01-30T07:41:04;102356.97;;;12.45
75431;BMP280;64127;51.488;5.462;2024-01-30T07:43:38;102358.50;;;12.42
75431;BMP280;64127;51.488;5.462;2024-01-30T07:46:10;102352.16;;;12.38
75431;BMP280;64127;51.488;5.462;2024-01-30T07:48:42;102361.22;;;12.43
75431;BMP280;64127;51.488;5.462;2024-01-30T07:51:14;102357.44;;;12.38
75431;BMP280;64127;51.488;5.462;2024-01-30T07:53:52;102362.75;;;12.40
75431;BMP280;64127;51.488;5.462;2024-01-30T07:56:24;102368.13;;;12.41
75431;BMP280;64127;51.488;5.462;2024-01-30T07:58:57;102369.94;;;12.42
75431;BMP280;64127;51.488;5.462;2024-01-30T08:01:29;102375.38;;;12.45
75431;BMP280;64127;51.488;5.462;2024-01-30T08:04:01;102385.09;;;12.46
75431;BMP280;64127;51.488;5.462;2024-01-30T08:06:33;102379.91;;;12.48
75431;BMP280;64127;51.488;5.462;2024-01-30T08:09:05;102382.47;;;12.46
75431;BMP280;64127;51.488;5.462;2024-01-30T08:11:37;102382.25;;;12.43
75431;BMP280;64127;51.488;5.462;2024-01-30T08:14:09;102371.56;;;12.40
75431;BMP280;64127;51.488;5.462;2024-01-30T08:16:41;102384.06;;;12.44
75431;BMP280;64127;51.488;5.462;2024-01-30T08:19:15;102386.81;;;12.46
75431;BMP280;64127;51.488;5.462;2024-01-30T08:21:47;102383.16;;;12.44
75431;BMP280;64127;51.488;5.462;2024-01-30T08:24:19;102388.81;;;12.50
75431;BMP280;64127;51.488;5.462;2024-01-30T08:26:51;102394.25;;;12.53
75431;BMP280;64127;51.488;5.462;2024-01-30T08:29:23;102387.28;;;12.53
75431;BMP280;64127;51.488;5.462;2024-01-30T08:31:55;102384.63;;;12.53
75431;BMP280;64127;51.488;5.462;2024-01-30T08:34:27;102386.44;;;12.54
75431;BMP280;64127;51.488;5.462;2024-01-30T08:36:59;102386.59;;;12.57
75431;BMP280;64127;51.488;5.462;2024-01-30T08:39:31;102391.22;;;12.61
75431;BMP280;64127;51.488;5.462;2024-01-30T08:42:04;102388.78;;;12.64
75431;BMP280;64127;51.488;5.462;2024-01-30T08:44:36;102390.59;;;12.65
75431;BMP280;64127;51.488;5.462;2024-01-30T08:47:08;102395.06;;;12.66
75431;BMP280;64127;51.488;5.462;2024-01-30T08:49:40;102396.13;;;12.70
75431;BMP280;64127;51.488;5.462;2024-01-30T08:52:12;102393.56;;;12.71
75431;BMP280;64127;51.488;5.462;2024-01-30T08:54:45;102394.59;;;12.74
75431;BMP280;64127;51.488;5.462;2024-01-30T08:57:17;102399.19;;;12.78
75431;BMP280;64127;51.488;5.462;2024-01-30T08:59:49;102382.75;;;12.82
75431;BMP280;64127;51.488;5.462;2024-01-30T09:02:21;102392.66;;;12.86
75431;BMP280;64127;51.488;5.462;2024-01-30T09:04:53;102390.19;;;12.89
75431;BMP280;64127;51.488;5.462;2024-01-30T09:07:25;102385.03;;;12.90
75431;BMP280;64127;51.488;5.462;2024-01-30T09:09:57;102392.19;;;12.93
75431;BMP280;64127;51.488;5.462;2024-01-30T09:12:30;102392.34;;;12.96
75431;BMP280;64127;51.488;5.462;2024-01-30T09:15:02;102396.00;;;12.98
75431;BMP280;64127;51.488;5.462;2024-01-30T09:17:34;102392.47;;;12.97
75431;BMP280;64127;51.488;5.462;2024-01-30T09:20:06;102402.41;;;13.03
75431;BMP280;64127;51.488;5.462;2024-01-30T09:22:39;102406.88;;;13.04
75431;BMP280;64127;51.488;5.462;2024-01-30T09:25:11;102401.69;;;13.05
75431;BMP280;64127;51.488;5.462;2024-01-30T09:27:43;102406.44;;;13.11
75431;BMP280;64127;51.488;5.462;2024-01-30T09:30:15;102412.84;;;13.16
75431;BMP280;64127;51.488;5.462;2024-01-30T09:32:47;102413.94;;;13.19
75431;BMP280;64127;51.488;5.462;2024-01-30T09:35:19;102413.19;;;13.22
75431;BMP280;64127;51.488;5.462;2024-01-30T09:37:51;102424.75;;;13.24
75431;BMP280;64127;51.488;5.462;2024-01-30T09:40:24;102413.47;;;13.27
75431;BMP280;64127;51.488;5.462;2024-01-30T09:42:58;102419.81;;;13.30
75431;BMP280;64127;51.488;5.462;2024-01-30T09:45:33;102424.09;;;13.28
75431;BMP280;64127;51.488;5.462;2024-01-30T09:48:07;102435.03;;;13.36
75431;BMP280;64127;51.488;5.462;2024-01-30T09:50:39;102441.31;;;13.38
75431;BMP280;64127;51.488;5.462;2024-01-30T09:53:14;102440.56;;;13.40
75431;BMP280;64127;51.488;5.462;2024-01-30T09:55:47;102438.94;;;13.42
75431;BMP280;64127;51.488;5.462;2024-01-30T09:58:20;102435.63;;;13.46
75431;BMP280;64127;51.488;5.462;2024-01-30T10:00:53;102433.00;;;13.46
75431;BMP280;64127;51.488;5.462;2024-01-30T10:03:30;102441.97;;;13.50
75431;BMP280;64127;51.488;5.462;2024-01-30T10:06:02;102431.44;;;13.50
75431;BMP280;64127;51.488;5.462;2024-01-30T10:08:34;102432.53;;;13.53
75431;BMP280;64127;51.488;5.462;2024-01-30T10:11:07;102430.91;;;13.55
75431;BMP280;64127;51.488;5.462;2024-01-30T10:13:39;102425.63;;;13.55
75431;BMP280;64127;51.488;5.462;2024-01-30T10:16:14;102440.69;;;13.58
75431;BMP280;64127;51.488;5.462;2024-01-30T10:18:48;102430.97;;;13.57
75431;BMP280;64127;51.488;5.462;2024-01-30T10:21:21;102446.06;;;13.59
75431;BMP280;64127;51.488;5.462;2024-01-30T10:23:53;102447.03;;;13.61
75431;BMP280;64127;51.488;5.462;2024-01-30T10:26:25;102449.66;;;13.61
75431;BMP280;64127;51.488;5.462;2024-01-30T10:28:57;102441.88;;;13.63
75431;BMP280;64127;51.488;5.462;2024-01-30T10:31:29;102450.81;;;13.66
75431;BMP280;64127;51.488;5.462;2024-01-30T10:34:01;102452.63;;;13.67
75431;BMP280;64127;51.488;5.462;2024-01-30T10:37:08;102450.91;;;13.68
75431;BMP280;64127;51.488;5.462;2024-01-30T10:39:53;102457.16;;;13.70
75431;BMP280;64127;51.488;5.462;2024-01-30T10:42:26;102459.09;;;13.73
75431;BMP280;64127;51.488;5.462;2024-01-30T10:45:14;102443.91;;;13.68
75431;BMP280;64127;51.488;5.462;2024-01-30T10:47:50;102455.28;;;13.67
75431;BMP280;64127;51.488;5.462;2024-01-30T10:50:28;102455.09;;;13.64
75431;BMP280;64127;51.488;5.462;2024-01-30T10:53:03;102460.38;;;13.64
75431;BMP280;64127;51.488;5.462;2024-01-30T10:55:38;102465.00;;;13.68
75431;BMP280;64127;51.488;5.462;2024-01-30T10:58:11;102452.56;;;13.66
75431;BMP280;64127;51.488;5.462;2024-01-30T11:00:45;102462.69;;;13.75
75431;BMP280;64127;51.488;5.462;2024-01-30T11:03:18;102462.97;;;13.79
75431;BMP280;64127;51.488;5.462;2024-01-30T11:05:51;102467.47;;;13.82
75431;BMP280;64127;51.488;5.462;2024-01-30T11:08:24;102460.56;;;13.84
75431;BMP280;64127;51.488;5.462;2024-01-30T11:11:00;102456.19;;;13.84
75431;BMP280;64127;51.488;5.462;2024-01-30T11:13:32;102451.81;;;13.85
75431;BMP280;64127;51.488;5.462;2024-01-30T11:16:05;102454.31;;;13.82
75431;BMP280;64127;51.488;5.462;2024-01-30T11:18:38;102469.13;;;13.80
75431;BMP280;64127;51.488;5.462;2024-01-30T11:21:13;102463.94;;;13.81
75431;BMP280;64127;51.488;5.462;2024-01-30T11:23:46;102465.94;;;14.17
75431;BMP280;64127;51.488;5.462;2024-01-30T11:26:27;102463.59;;;13.91
75431;BMP280;64127;51.488;5.462;2024-01-30T11:29:03;102456.28;;;13.86
75431;BMP280;64127;51.488;5.462;2024-01-30T11:31:36;102456.28;;;13.86
75431;BMP280;64127;51.488;5.462;2024-01-30T11:34:10;102464.19;;;13.86
75431;BMP280;64127;51.488;5.462;2024-01-30T11:36:44;102458.81;;;13.84
75431;BMP280;64127;51.488;5.462;2024-01-30T11:39:20;102444.72;;;13.84
75431;BMP280;64127;51.488;5.462;2024-01-30T11:41:55;102458.00;;;13.85
75431;BMP280;64127;51.488;5.462;2024-01-30T11:44:27;102463.19;;;13.84
75431;BMP280;64127;51.488;5.462;2024-01-30T11:47:00;102466.72;;;13.84
75431;BMP280;64127;51.488;5.462;2024-01-30T11:49:32;102462.22;;;13.82
75431;BMP280;64127;51.488;5.462;2024-01-30T11:52:05;102467.38;;;13.80
75431;BMP280;64127;51.488;5.462;2024-01-30T11:54:40;102467.31;;;13.79
75431;BMP280;64127;51.488;5.462;2024-01-30T11:57:12;102473.25;;;13.75
75431;BMP280;64127;51.488;5.462;2024-01-30T11:59:44;102469.69;;;13.74
75431;BMP280;64127;51.488;5.462;2024-01-30T12:02:16;102472.44;;;13.76
75431;BMP280;64127;51.488;5.462;2024-01-30T12:04:51;102481.97;;;13.73
75431;BMP280;64127;51.488;5.462;2024-01-30T12:07:23;102467.00;;;13.73
75431;BMP280;64127;51.488;5.462;2024-01-30T12:09:55;102463.50;;;13.73
75431;BMP280;64127;51.488;5.462;2024-01-30T12:12:29;102465.16;;;13.71
75431;BMP280;64127;51.488;5.462;2024-01-30T12:15:01;102471.41;;;13.73
75431;BMP280;64127;51.488;5.462;2024-01-30T12:17:34;102482.63;;;13.69
75431;BMP280;64127;51.488;5.462;2024-01-30T12:20:09;102469.38;;;13.68
75431;BMP280;64127;51.488;5.462;2024-01-30T12:22:44;102481.72;;;13.69
75431;BMP280;64127;51.488;5.462;2024-01-30T12:25:19;102478.25;;;13.70
75431;BMP280;64127;51.488;5.462;2024-01-30T12:27:52;102484.59;;;13.73
75431;BMP280;64127;51.488;5.462;2024-01-30T12:30:27;102468.28;;;13.64
75431;BMP280;64127;51.488;5.462;2024-01-30T12:33:00;102497.06;;;13.92
75431;BMP280;64127;51.488;5.462;2024-01-30T12:35:34;102497.00;;;14.23
75431;BMP280;64127;51.488;5.462;2024-01-30T12:38:08;102511.38;;;14.44
75431;BMP280;64127;51.488;5.462;2024-01-30T12:40:40;102490.97;;;14.42
75431;BMP280;64127;51.488;5.462;2024-01-30T12:43:16;102502.53;;;14.28
75431;BMP280;64127;51.488;5.462;2024-01-30T12:46:03;102515.03;;;14.32
75431;BMP280;64127;51.488;5.462;2024-01-30T12:48:35;102510.50;;;14.29
75431;BMP280;64127;51.488;5.462;2024-01-30T12:51:08;102507.81;;;14.28
75431;BMP280;64127;51.488;5.462;2024-01-30T12:53:41;102514.16;;;14.31
75431;BMP280;64127;51.488;5.462;2024-01-30T12:56:13;102513.16;;;14.61
75431;BMP280;64127;51.488;5.462;2024-01-30T12:58:46;102509.50;;;14.76
75431;BMP280;64127;51.488;5.462;2024-01-30T13:01:22;102492.13;;;14.63
75431;BMP280;64127;51.488;5.462;2024-01-30T13:03:55;102500.53;;;14.56
75431;BMP280;64127;51.488;5.462;2024-01-30T13:06:29;102518.44;;;14.45
75431;BMP280;64127;51.488;5.462;2024-01-30T13:09:01;102505.66;;;14.53
75431;BMP280;64127;51.488;5.462;2024-01-30T13:11:33;102507.22;;;14.49
75431;BMP280;64127;51.488;5.462;2024-01-30T13:14:06;102500.31;;;14.35
75431;BMP280;64127;51.488;5.462;2024-01-30T13:16:38;102514.41;;;14.36
75431;BMP280;64127;51.488;5.462;2024-01-30T13:19:10;102521.72;;;14.25
75431;BMP280;64127;51.488;5.462;2024-01-30T13:21:42;102513.97;;;14.12
75431;BMP280;64127;51.488;5.462;2024-01-30T13:24:14;102517.19;;;14.06
75431;BMP280;64127;51.488;5.462;2024-01-30T13:26:47;102523.69;;;13.97
75431;BMP280;64127;51.488;5.462;2024-01-30T13:29:20;102535.97;;;13.96
75431;BMP280;64127;51.488;5.462;2024-01-30T13:31:52;102541.63;;;13.88
75431;BMP280;64127;51.488;5.462;2024-01-30T13:34:24;102532.41;;;13.80
75431;BMP280;64127;51.488;5.462;2024-01-30T13:36:56;102544.44;;;13.91
75431;BMP280;64127;51.488;5.462;2024-01-30T13:39:29;102535.38;;;14.02
75431;BMP280;64127;51.488;5.462;2024-01-30T13:42:07;102532.69;;;14.00
75431;BMP280;64127;51.488;5.462;2024-01-30T13:44:39;102532.44;;;13.96
75431;BMP280;64127;51.488;5.462;2024-01-30T13:47:11;102515.09;;;13.85
75431;BMP280;64127;51.488;5.462;2024-01-30T13:49:43;102533.56;;;13.85
75431;BMP280;64127;51.488;5.462;2024-01-30T13:52:15;102535.91;;;13.80
75431;BMP280;64127;51.488;5.462;2024-01-30T13:54:47;102536.50;;;13.75
75431;BMP280;64127;51.488;5.462;2024-01-30T13:57:20;102536.22;;;13.70
75431;BMP280;64127;51.488;5.462;2024-01-30T13:59:51;102534.50;;;13.70
75431;BMP280;64127;51.488;5.462;2024-01-30T14:02:23;102529.88;;;13.66
75431;BMP280;64127;51.488;5.462;2024-01-30T14:04:55;102525.34;;;13.64
75431;BMP280;64127;51.488;5.462;2024-01-30T14:07:28;102529.53;;;13.60
75431;BMP280;64127;51.488;5.462;2024-01-30T14:10:00;102556.63;;;13.58
75431;BMP280;64127;51.488;5.462;2024-01-30T14:12:34;102538.03;;;13.40
75431;BMP280;64127;51.488;5.462;2024-01-30T14:15:08;102557.00;;;13.49
75431;BMP280;64127;51.488;5.462;2024-01-30T14:17:58;102562.09;;;13.46
75431;BMP280;64127;51.488;5.462;2024-01-30T14:20:31;102561.38;;;13.49
75431;BMP280;64127;51.488;5.462;2024-01-30T14:23:03;102576.28;;;13.48
75431;BMP280;64127;51.488;5.462;2024-01-30T14:25:35;102567.38;;;13.46
75431;BMP280;64127;51.488;5.462;2024-01-30T14:28:07;102571.81;;;13.47